sensor_id;sensor_type;location;lat;lon;timestamp;temperature;humidity
80250;DHT22;69561;37.974;23.708;2023-05-18T00:02:06;25.00;41.80
80250;DHT22;69561;37.974;23.708;2023-05-18T00:04:33;25.00;42.80
80250;DHT22;69561;37.974;23.708;2023-05-18T00:07:00;24.90;41.80
80250;DHT22;69561;37.974;23.708;2023-05-18T00:09:30;24.90;41.80
80250;DHT22;69561;37.974;23.708;2023-05-18T00:11:57;24.90;41.80
80250;DHT22;69561;37.974;23.708;2023-05-18T00:14:23;24.90;41.80
80250;DHT22;69561;37.974;23.708;2023-05-18T00:16:49;24.90;41.80
80250;DHT22;69561;37.974;23.708;2023-05-18T00:19:18;24.90;41.80
80250;DHT22;69561;37.974;23.708;2023-05-18T00:21:45;24.90;41.80
80250;DHT22;69561;37.974;23.708;2023-05-18T00:24:14;24.90;41.80
80250;DHT22;69561;37.974;23.708;2023-05-18T00:26:42;24.90;41.80
80250;DHT22;69561;37.974;23.708;2023-05-18T00:29:08;24.90;41.80
80250;DHT22;69561;37.974;23.708;2023-05-18T00:31:35;24.90;41.80
80250;DHT22;69561;37.974;23.708;2023-05-18T00:34:03;24.90;41.80
80250;DHT22;69561;37.974;23.708;2023-05-18T00:36:29;24.90;41.80
80250;DHT22;69561;37.974;23.708;2023-05-18T00:38:56;24.90;41.80
80250;DHT22;69561;37.974;23.708;2023-05-18T00:41:22;24.90;41.80
80250;DHT22;69561;37.974;23.708;2023-05-18T00:43:48;24.80;41.70
80250;DHT22;69561;37.974;23.708;2023-05-18T00:46:13;24.90;41.80
80250;DHT22;69561;37.974;23.708;2023-05-18T00:48:39;24.90;41.90
80250;DHT22;69561;37.974;23.708;2023-05-18T00:51:05;24.90;41.90
80250;DHT22;69561;37.974;23.708;2023-05-18T00:53:35;24.80;41.80
80250;DHT22;69561;37.974;23.708;2023-05-18T00:56:01;24.90;41.80
80250;DHT22;69561;37.974;23.708;2023-05-18T00:58:28;24.90;41.90
80250;DHT22;69561;37.974;23.708;2023-05-18T01:00:53;24.80;41.90
80250;DHT22;69561;37.974;23.708;2023-05-18T01:03:19;24.80;41.90
80250;DHT22;69561;37.974;23.708;2023-05-18T01:05:46;24.90;41.90
80250;DHT22;69561;37.974;23.708;2023-05-18T01:08:24;24.90;41.90
80250;DHT22;69561;37.974;23.708;2023-05-18T01:10:53;24.90;42.00
80250;DHT22;69561;37.974;23.708;2023-05-18T01:16:26;24.80;42.00
80250;DHT22;69561;37.974;23.708;2023-05-18T01:19:01;24.80;42.10
80250;DHT22;69561;37.974;23.708;2023-05-18T01:21:56;24.80;42.10
80250;DHT22;69561;37.974;23.708;2023-05-18T01:24:47;24.80;42.20
80250;DHT22;69561;37.974;23.708;2023-05-18T01:27:16;24.80;42.30
80250;DHT22;69561;37.974;23.708;2023-05-18T01:29:43;24.80;42.30
80250;DHT22;69561;37.974;23.708;2023-05-18T01:32:20;24.80;42.30
80250;DHT22;69561;37.974;23.708;2023-05-18T01:34:46;24.80;42.40
80250;DHT22;69561;37.974;23.708;2023-05-18T01:37:12;24.80;42.40
80250;DHT22;69561;37.974;23.708;2023-05-18T01:39:39;24.80;42.40
80250;DHT22;69561;37.974;23.708;2023-05-18T01:42:14;24.80;42.40
80250;DHT22;69561;37.974;23.708;2023-05-18T01:44:50;24.80;42.40
80250;DHT22;69561;37.974;23.708;2023-05-18T01:47:18;24.80;42.40
80250;DHT22;69561;37.974;23.708;2023-05-18T01:50:01;24.80;42.40
80250;DHT22;69561;37.974;23.708;2023-05-18T01:55:05;24.90;42.60
80250;DHT22;69561;37.974;23.708;2023-05-18T01:57:32;24.80;42.50
80250;DHT22;69561;37.974;23.708;2023-05-18T01:59:59;24.90;42.60
80250;DHT22;69561;37.974;23.708;2023-05-18T02:02:26;24.80;42.60
80250;DHT22;69561;37.974;23.708;2023-05-18T02:04:52;24.80;42.60
80250;DHT22;69561;37.974;23.708;2023-05-18T02:07:18;24.90;42.70
80250;DHT22;69561;37.974;23.708;2023-05-18T02:09:43;24.90;42.70
80250;DHT22;69561;37.974;23.708;2023-05-18T02:12:10;24.80;42.70
80250;DHT22;69561;37.974;23.708;2023-05-18T02:14:36;24.80;42.80
80250;DHT22;69561;37.974;23.708;2023-05-18T02:17:02;24.90;42.90
80250;DHT22;69561;37.974;23.708;2023-05-18T02:19:28;24.80;43.80
80250;DHT22;69561;37.974;23.708;2023-05-18T02:21:55;24.90;42.90
80250;DHT22;69561;37.974;23.708;2023-05-18T02:24:22;24.90;43.00
80250;DHT22;69561;37.974;23.708;2023-05-18T02:26:49;24.90;43.00
80250;DHT22;69561;37.974;23.708;2023-05-18T02:29:16;24.90;43.00
80250;DHT22;69561;37.974;23.708;2023-05-18T02:31:42;24.90;43.00
80250;DHT22;69561;37.974;23.708;2023-05-18T02:34:07;24.80;43.00
80250;DHT22;69561;37.974;23.708;2023-05-18T02:36:33;24.90;43.00
80250;DHT22;69561;37.974;23.708;2023-05-18T02:39:09;24.90;43.00
80250;DHT22;69561;37.974;23.708;2023-05-18T02:41:35;24.80;42.90
80250;DHT22;69561;37.974;23.708;2023-05-18T02:44:02;24.90;43.00
80250;DHT22;69561;37.974;23.708;2023-05-18T02:46:28;24.90;43.00
80250;DHT22;69561;37.974;23.708;2023-05-18T02:48:54;24.90;43.00
80250;DHT22;69561;37.974;23.708;2023-05-18T02:51:20;24.90;43.00
80250;DHT22;69561;37.974;23.708;2023-05-18T02:53:50;24.80;42.90
80250;DHT22;69561;37.974;23.708;2023-05-18T02:56:16;24.90;43.00
80250;DHT22;69561;37.974;23.708;2023-05-18T02:58:44;24.90;43.10
80250;DHT22;69561;37.974;23.708;2023-05-18T03:01:10;24.80;43.10
80250;DHT22;69561;37.974;23.708;2023-05-18T03:03:39;24.80;43.10
80250;DHT22;69561;37.974;23.708;2023-05-18T03:06:08;24.80;43.20
80250;DHT22;69561;37.974;23.708;2023-05-18T03:08:35;24.80;43.20
80250;DHT22;69561;37.974;23.708;2023-05-18T03:11:02;24.80;43.20
80250;DHT22;69561;37.974;23.708;2023-05-18T03:13:28;24.80;43.30
80250;DHT22;69561;37.974;23.708;2023-05-18T03:15:53;24.80;43.40
80250;DHT22;69561;37.974;23.708;2023-05-18T03:18:21;24.80;43.40
80250;DHT22;69561;37.974;23.708;2023-05-18T03:20:46;24.80;43.50
80250;DHT22;69561;37.974;23.708;2023-05-18T03:23:17;24.80;43.50
80250;DHT22;69561;37.974;23.708;2023-05-18T03:25:42;24.70;43.40
80250;DHT22;69561;37.974;23.708;2023-05-18T03:28:09;24.80;43.50
80250;DHT22;69561;37.974;23.708;2023-05-18T03:30:35;24.80;43.50
80250;DHT22;69561;37.974;23.708;2023-05-18T03:33:01;24.80;43.50
80250;DHT22;69561;37.974;23.708;2023-05-18T03:35:27;24.80;43.50
80250;DHT22;69561;37.974;23.708;2023-05-18T03:37:53;24.80;43.50
80250;DHT22;69561;37.974;23.708;2023-05-18T03:40:19;24.80;43.50
80250;DHT22;69561;37.974;23.708;2023-05-18T03:42:45;24.80;43.50
80250;DHT22;69561;37.974;23.708;2023-05-18T03:45:11;25.00;43.40
80250;DHT22;69561;37.974;23.708;2023-05-18T03:47:38;25.20;43.00
80250;DHT22;69561;37.974;23.708;2023-05-18T03:50:04;25.50;42.60
80250;DHT22;69561;37.974;23.708;2023-05-18T03:52:31;25.80;42.20
80250;DHT22;69561;37.974;23.708;2023-05-18T03:54:59;26.10;41.70
80250;DHT22;69561;37.974;23.708;2023-05-18T03:57:25;26.30;41.30
80250;DHT22;69561;37.974;23.708;2023-05-18T03:59:51;26.60;40.80
80250;DHT22;69561;37.974;23.708;2023-05-18T04:02:17;26.80;40.20
80250;DHT22;69561;37.974;23.708;2023-05-18T04:04:42;27.10;39.90
80250;DHT22;69561;37.974;23.708;2023-05-18T04:07:15;27.30;39.50
80250;DHT22;69561;37.974;23.708;2023-05-18T04:09:42;27.60;39.20
80250;DHT22;69561;37.974;23.708;2023-05-18T04:12:09;27.90;38.70
80250;DHT22;69561;37.974;23.708;2023-05-18T04:14:35;28.10;38.20
80250;DHT22;69561;37.974;23.708;2023-05-18T04:17:01;28.40;37.90
80250;DHT22;69561;37.974;23.708;2023-05-18T04:19:38;28.50;37.90
80250;DHT22;69561;37.974;23.708;2023-05-18T04:22:06;28.70;39.80
80250;DHT22;69561;37.974;23.708;2023-05-18T04:24:33;28.50;39.70
80250;DHT22;69561;37.974;23.708;2023-05-18T04:27:00;28.20;39.70
80250;DHT22;69561;37.974;23.708;2023-05-18T04:29:27;27.80;40.40
80250;DHT22;69561;37.974;23.708;2023-05-18T04:31:53;27.50;40.20
80250;DHT22;69561;37.974;23.708;2023-05-18T04:34:24;27.60;39.80
80250;DHT22;69561;37.974;23.708;2023-05-18T04:36:51;28.10;39.10
80250;DHT22;69561;37.974;23.708;2023-05-18T04:39:19;28.30;38.80
80250;DHT22;69561;37.974;23.708;2023-05-18T04:41:48;28.20;38.80
80250;DHT22;69561;37.974;23.708;2023-05-18T04:44:15;28.00;39.00
80250;DHT22;69561;37.974;23.708;2023-05-18T04:46:43;27.70;39.30
80250;DHT22;69561;37.974;23.708;2023-05-18T04:49:12;27.60;39.40
80250;DHT22;69561;37.974;23.708;2023-05-18T04:51:38;27.50;39.50
80250;DHT22;69561;37.974;23.708;2023-05-18T04:54:06;27.30;39.60
80250;DHT22;69561;37.974;23.708;2023-05-18T04:56:33;27.30;39.80
80250;DHT22;69561;37.974;23.708;2023-05-18T04:58:59;27.20;39.80
80250;DHT22;69561;37.974;23.708;2023-05-18T05:01:26;27.10;39.90
80250;DHT22;69561;37.974;23.708;2023-05-18T05:03:51;27.00;40.00
80250;DHT22;69561;37.974;23.708;2023-05-18T05:06:17;27.00;40.20
80250;DHT22;69561;37.974;23.708;2023-05-18T05:08:43;26.90;40.30
80250;DHT22;69561;37.974;23.708;2023-05-18T05:11:09;26.80;40.40
80250;DHT22;69561;37.974;23.708;2023-05-18T05:13:35;26.70;40.50
80250;DHT22;69561;37.974;23.708;2023-05-18T05:16:01;26.70;40.60
80250;DHT22;69561;37.974;23.708;2023-05-18T05:18:27;26.70;40.60
80250;DHT22;69561;37.974;23.708;2023-05-18T05:20:53;26.60;40.60
80250;DHT22;69561;37.974;23.708;2023-05-18T05:23:19;26.60;40.50
80250;DHT22;69561;37.974;23.708;2023-05-18T05:25:45;26.60;40.50
80250;DHT22;69561;37.974;23.708;2023-05-18T05:28:10;26.50;40.40
80250;DHT22;69561;37.974;23.708;2023-05-18T05:30:36;26.50;40.30
80250;DHT22;69561;37.974;23.708;2023-05-18T05:33:02;26.50;40.30
80250;DHT22;69561;37.974;23.708;2023-05-18T05:35:28;26.50;40.20
80250;DHT22;69561;37.974;23.708;2023-05-18T05:37:53;26.50;40.30
80250;DHT22;69561;37.974;23.708;2023-05-18T05:40:19;26.50;40.20
80250;DHT22;69561;37.974;23.708;2023-05-18T05:42:46;26.50;40.20
80250;DHT22;69561;37.974;23.708;2023-05-18T05:45:12;26.50;40.10
80250;DHT22;69561;37.974;23.708;2023-05-18T05:47:38;26.50;40.10
80250;DHT22;69561;37.974;23.708;2023-05-18T05:50:04;26.50;40.10
80250;DHT22;69561;37.974;23.708;2023-05-18T05:52:30;26.50;40.10
80250;DHT22;69561;37.974;23.708;2023-05-18T05:54:56;26.50;39.70
80250;DHT22;69561;37.974;23.708;2023-05-18T05:57:22;26.50;39.80
80250;DHT22;69561;37.974;23.708;2023-05-18T05:59:47;26.50;39.50
80250;DHT22;69561;37.974;23.708;2023-05-18T06:02:13;26.60;39.40
80250;DHT22;69561;37.974;23.708;2023-05-18T06:04:39;26.50;39.40
80250;DHT22;69561;37.974;23.708;2023-05-18T06:07:05;26.50;39.30
80250;DHT22;69561;37.974;23.708;2023-05-18T06:09:31;26.40;39.10
80250;DHT22;69561;37.974;23.708;2023-05-18T06:11:56;26.40;39.20
80250;DHT22;69561;37.974;23.708;2023-05-18T06:14:22;26.40;39.20
80250;DHT22;69561;37.974;23.708;2023-05-18T06:16:48;26.40;39.20
80250;DHT22;69561;37.974;23.708;2023-05-18T06:19:14;26.40;39.00
80250;DHT22;69561;37.974;23.708;2023-05-18T06:21:39;26.40;38.90
80250;DHT22;69561;37.974;23.708;2023-05-18T06:24:05;26.40;38.90
80250;DHT22;69561;37.974;23.708;2023-05-18T06:26:31;26.40;38.80
80250;DHT22;69561;37.974;23.708;2023-05-18T06:28:57;26.40;38.90
80250;DHT22;69561;37.974;23.708;2023-05-18T06:31:23;26.40;38.80
80250;DHT22;69561;37.974;23.708;2023-05-18T06:33:49;26.40;38.80
80250;DHT22;69561;37.974;23.708;2023-05-18T06:36:15;26.40;38.70
80250;DHT22;69561;37.974;23.708;2023-05-18T06:38:41;26.40;38.60
80250;DHT22;69561;37.974;23.708;2023-05-18T06:41:07;26.40;38.40
80250;DHT22;69561;37.974;23.708;2023-05-18T06:43:32;26.40;38.30
80250;DHT22;69561;37.974;23.708;2023-05-18T06:45:58;26.40;38.30
80250;DHT22;69561;37.974;23.708;2023-05-18T06:48:26;26.40;38.30
80250;DHT22;69561;37.974;23.708;2023-05-18T06:50:53;26.40;38.20
80250;DHT22;69561;37.974;23.708;2023-05-18T06:53:19;26.40;38.20
80250;DHT22;69561;37.974;23.708;2023-05-18T06:55:45;26.40;38.30
80250;DHT22;69561;37.974;23.708;2023-05-18T06:58:10;26.40;38.30
80250;DHT22;69561;37.974;23.708;2023-05-18T07:00:37;26.30;38.20
80250;DHT22;69561;37.974;23.708;2023-05-18T07:03:03;26.30;38.20
80250;DHT22;69561;37.974;23.708;2023-05-18T07:05:29;26.30;38.20
80250;DHT22;69561;37.974;23.708;2023-05-18T07:07:55;26.30;38.10
80250;DHT22;69561;37.974;23.708;2023-05-18T07:10:20;26.30;38.10
80250;DHT22;69561;37.974;23.708;2023-05-18T07:12:48;26.30;38.00
80250;DHT22;69561;37.974;23.708;2023-05-18T07:15:14;26.30;38.00
80250;DHT22;69561;37.974;23.708;2023-05-18T07:17:40;26.30;37.90
80250;DHT22;69561;37.974;23.708;2023-05-18T07:20:07;26.30;37.90
80250;DHT22;69561;37.974;23.708;2023-05-18T07:22:33;26.30;37.90
80250;DHT22;69561;37.974;23.708;2023-05-18T07:24:59;26.30;37.60
80250;DHT22;69561;37.974;23.708;2023-05-18T07:27:26;26.30;37.80
80250;DHT22;69561;37.974;23.708;2023-05-18T07:29:51;26.30;37.80
80250;DHT22;69561;37.974;23.708;2023-05-18T07:32:18;26.30;37.80
80250;DHT22;69561;37.974;23.708;2023-05-18T07:34:45;26.30;37.80
80250;DHT22;69561;37.974;23.708;2023-05-18T07:37:14;26.30;37.80
80250;DHT22;69561;37.974;23.708;2023-05-18T07:39:40;26.30;37.80
80250;DHT22;69561;37.974;23.708;2023-05-18T07:42:07;26.30;37.90
80250;DHT22;69561;37.974;23.708;2023-05-18T07:44:33;26.30;38.70
80250;DHT22;69561;37.974;23.708;2023-05-18T07:46:59;26.30;37.70
80250;DHT22;69561;37.974;23.708;2023-05-18T07:49:24;26.30;37.80
80250;DHT22;69561;37.974;23.708;2023-05-18T07:51:50;26.20;37.80
80250;DHT22;69561;37.974;23.708;2023-05-18T07:54:16;26.20;37.80
80250;DHT22;69561;37.974;23.708;2023-05-18T07:56:42;26.20;37.80
80250;DHT22;69561;37.974;23.708;2023-05-18T07:59:09;26.20;37.80
80250;DHT22;69561;37.974;23.708;2023-05-18T08:01:35;26.30;37.80
80250;DHT22;69561;37.974;23.708;2023-05-18T08:04:02;26.30;37.90
80250;DHT22;69561;37.974;23.708;2023-05-18T08:06:28;26.30;37.90
80250;DHT22;69561;37.974;23.708;2023-05-18T08:08:54;26.30;38.10
80250;DHT22;69561;37.974;23.708;2023-05-18T08:11:21;26.20;38.10
80250;DHT22;69561;37.974;23.708;2023-05-18T08:13:47;26.20;38.20
80250;DHT22;69561;37.974;23.708;2023-05-18T08:16:13;26.20;38.30
80250;DHT22;69561;37.974;23.708;2023-05-18T08:18:39;26.20;38.30
80250;DHT22;69561;37.974;23.708;2023-05-18T08:21:05;26.20;38.30
80250;DHT22;69561;37.974;23.708;2023-05-18T08:23:36;26.20;38.40
80250;DHT22;69561;37.974;23.708;2023-05-18T08:26:03;26.20;38.40
80250;DHT22;69561;37.974;23.708;2023-05-18T08:28:29;26.20;38.50
80250;DHT22;69561;37.974;23.708;2023-05-18T08:30:55;26.20;38.50
80250;DHT22;69561;37.974;23.708;2023-05-18T08:33:21;26.10;38.60
80250;DHT22;69561;37.974;23.708;2023-05-18T08:35:48;26.10;38.70
80250;DHT22;69561;37.974;23.708;2023-05-18T08:38:14;26.10;38.70
80250;DHT22;69561;37.974;23.708;2023-05-18T08:41:15;26.10;38.70
80250;DHT22;69561;37.974;23.708;2023-05-18T08:43:45;26.10;38.80
80250;DHT22;69561;37.974;23.708;2023-05-18T08:46:19;26.10;38.90
80250;DHT22;69561;37.974;23.708;2023-05-18T08:48:46;26.10;38.90
80250;DHT22;69561;37.974;23.708;2023-05-18T08:51:13;26.10;38.90
80250;DHT22;69561;37.974;23.708;2023-05-18T08:53:42;26.10;38.80
80250;DHT22;69561;37.974;23.708;2023-05-18T08:56:10;26.10;38.80
80250;DHT22;69561;37.974;23.708;2023-05-18T08:58:46;26.10;38.80
80250;DHT22;69561;37.974;23.708;2023-05-18T09:01:13;26.10;38.80
80250;DHT22;69561;37.974;23.708;2023-05-18T09:03:39;26.10;38.80
80250;DHT22;69561;37.974;23.708;2023-05-18T09:06:06;26.10;38.80
80250;DHT22;69561;37.974;23.708;2023-05-18T09:08:32;26.10;38.80
80250;DHT22;69561;37.974;23.708;2023-05-18T09:11:01;26.10;38.80
80250;DHT22;69561;37.974;23.708;2023-05-18T09:13:28;26.10;38.80
80250;DHT22;69561;37.974;23.708;2023-05-18T09:15:53;26.10;38.90
80250;DHT22;69561;37.974;23.708;2023-05-18T09:18:19;26.00;38.90
80250;DHT22;69561;37.974;23.708;2023-05-18T09:20:45;26.00;38.90
80250;DHT22;69561;37.974;23.708;2023-05-18T09:23:11;26.00;38.90
80250;DHT22;69561;37.974;23.708;2023-05-18T09:25:44;26.00;38.80
80250;DHT22;69561;37.974;23.708;2023-05-18T09:28:11;26.10;38.80
80250;DHT22;69561;37.974;23.708;2023-05-18T09:30:42;26.00;38.80
80250;DHT22;69561;37.974;23.708;2023-05-18T09:33:18;26.00;38.80
80250;DHT22;69561;37.974;23.708;2023-05-18T09:35:46;26.00;38.80
80250;DHT22;69561;37.974;23.708;2023-05-18T09:38:23;26.00;38.90
80250;DHT22;69561;37.974;23.708;2023-05-18T09:40:49;26.00;38.70
80250;DHT22;69561;37.974;23.708;2023-05-18T09:43:18;26.00;38.70
80250;DHT22;69561;37.974;23.708;2023-05-18T09:45:46;26.10;38.70
80250;DHT22;69561;37.974;23.708;2023-05-18T09:48:14;26.00;38.60
80250;DHT22;69561;37.974;23.708;2023-05-18T09:50:42;26.10;38.60
80250;DHT22;69561;37.974;23.708;2023-05-18T09:53:09;26.10;38.70
80250;DHT22;69561;37.974;23.708;2023-05-18T09:55:47;26.10;38.60
80250;DHT22;69561;37.974;23.708;2023-05-18T09:58:14;26.00;38.70
80250;DHT22;69561;37.974;23.708;2023-05-18T10:00:42;26.00;38.70
80250;DHT22;69561;37.974;23.708;2023-05-18T10:03:21;26.00;38.70
80250;DHT22;69561;37.974;23.708;2023-05-18T10:05:48;26.10;38.70
80250;DHT22;69561;37.974;23.708;2023-05-18T10:08:14;26.00;38.60
80250;DHT22;69561;37.974;23.708;2023-05-18T10:10:43;26.00;38.60
80250;DHT22;69561;37.974;23.708;2023-05-18T10:13:13;26.00;38.80
80250;DHT22;69561;37.974;23.708;2023-05-18T10:15:46;26.00;38.70
80250;DHT22;69561;37.974;23.708;2023-05-18T10:18:12;26.00;38.70
80250;DHT22;69561;37.974;23.708;2023-05-18T10:20:42;26.10;38.90
80250;DHT22;69561;37.974;23.708;2023-05-18T10:23:08;26.00;39.00
80250;DHT22;69561;37.974;23.708;2023-05-18T10:25:36;26.00;39.10
80250;DHT22;69561;37.974;23.708;2023-05-18T10:28:06;26.00;39.40
80250;DHT22;69561;37.974;23.708;2023-05-18T10:30:33;25.90;39.70
80250;DHT22;69561;37.974;23.708;2023-05-18T10:32:59;25.90;40.20
80250;DHT22;69561;37.974;23.708;2023-05-18T10:35:26;26.00;40.30
80250;DHT22;69561;37.974;23.708;2023-05-18T10:37:54;25.90;40.40
80250;DHT22;69561;37.974;23.708;2023-05-18T10:40:23;25.90;40.60
80250;DHT22;69561;37.974;23.708;2023-05-18T10:42:49;25.90;40.80
80250;DHT22;69561;37.974;23.708;2023-05-18T10:45:16;25.90;40.80
80250;DHT22;69561;37.974;23.708;2023-05-18T10:47:43;25.90;40.70
80250;DHT22;69561;37.974;23.708;2023-05-18T10:50:09;25.90;40.70
80250;DHT22;69561;37.974;23.708;2023-05-18T10:52:39;25.90;40.50
80250;DHT22;69561;37.974;23.708;2023-05-18T10:55:07;26.00;40.40
80250;DHT22;69561;37.974;23.708;2023-05-18T10:57:39;26.00;40.20
80250;DHT22;69561;37.974;23.708;2023-05-18T11:00:08;26.00;40.30
80250;DHT22;69561;37.974;23.708;2023-05-18T11:02:39;25.90;40.20
80250;DHT22;69561;37.974;23.708;2023-05-18T11:05:07;26.00;40.30
80250;DHT22;69561;37.974;23.708;2023-05-18T11:07:34;25.90;40.40
80250;DHT22;69561;37.974;23.708;2023-05-18T11:10:09;25.90;40.50
80250;DHT22;69561;37.974;23.708;2023-05-18T11:12:39;26.00;40.40
80250;DHT22;69561;37.974;23.708;2023-05-18T11:15:06;26.00;40.40
80250;DHT22;69561;37.974;23.708;2023-05-18T11:17:32;26.00;40.10
80250;DHT22;69561;37.974;23.708;2023-05-18T11:28:02;26.10;39.60
80250;DHT22;69561;37.974;23.708;2023-05-18T11:30:43;26.00;39.60
80250;DHT22;69561;37.974;23.708;2023-05-18T11:33:13;26.00;39.80
80250;DHT22;69561;37.974;23.708;2023-05-18T11:41:31;25.70;40.10
80250;DHT22;69561;37.974;23.708;2023-05-18T11:44:19;25.70;40.20
80250;DHT22;69561;37.974;23.708;2023-05-18T11:49:31;25.60;40.20
80250;DHT22;69561;37.974;23.708;2023-05-18T11:54:43;25.70;40.20
80250;DHT22;69561;37.974;23.708;2023-05-18T11:57:12;25.70;40.30
80250;DHT22;69561;37.974;23.708;2023-05-18T11:59:40;25.60;40.30
80250;DHT22;69561;37.974;23.708;2023-05-18T12:02:08;25.70;40.40
80250;DHT22;69561;37.974;23.708;2023-05-18T12:04:42;25.70;40.50
80250;DHT22;69561;37.974;23.708;2023-05-18T12:07:09;25.70;40.30
80250;DHT22;69561;37.974;23.708;2023-05-18T12:09:39;25.80;40.10
80250;DHT22;69561;37.974;23.708;2023-05-18T12:12:06;25.80;40.10
80250;DHT22;69561;37.974;23.708;2023-05-18T12:14:34;25.70;40.10
80250;DHT22;69561;37.974;23.708;2023-05-18T12:17:00;25.70;40.20
80250;DHT22;69561;37.974;23.708;2023-05-18T12:19:26;25.70;40.20
80250;DHT22;69561;37.974;23.708;2023-05-18T12:21:52;25.70;40.20
80250;DHT22;69561;37.974;23.708;2023-05-18T12:24:20;25.70;39.80
80250;DHT22;69561;37.974;23.708;2023-05-18T12:26:45;25.80;39.70
80250;DHT22;69561;37.974;23.708;2023-05-18T12:29:12;25.70;39.70
80250;DHT22;69561;37.974;23.708;2023-05-18T12:31:45;25.70;39.50
80250;DHT22;69561;37.974;23.708;2023-05-18T12:34:11;25.70;39.40
80250;DHT22;69561;37.974;23.708;2023-05-18T12:36:49;25.70;39.40
80250;DHT22;69561;37.974;23.708;2023-05-18T12:39:15;25.70;39.30
80250;DHT22;69561;37.974;23.708;2023-05-18T12:41:41;25.70;39.10
80250;DHT22;69561;37.974;23.708;2023-05-18T12:44:07;25.70;39.10
80250;DHT22;69561;37.974;23.708;2023-05-18T12:46:33;25.70;38.90
80250;DHT22;69561;37.974;23.708;2023-05-18T12:48:59;25.80;38.80
80250;DHT22;69561;37.974;23.708;2023-05-18T12:51:33;25.80;38.80
80250;DHT22;69561;37.974;23.708;2023-05-18T12:54:03;25.80;38.70
80250;DHT22;69561;37.974;23.708;2023-05-18T12:57:08;25.80;38.70
80250;DHT22;69561;37.974;23.708;2023-05-18T12:59:34;25.70;38.70
80250;DHT22;69561;37.974;23.708;2023-05-18T13:02:00;25.70;38.80
80250;DHT22;69561;37.974;23.708;2023-05-18T13:04:33;25.70;38.80
80250;DHT22;69561;37.974;23.708;2023-05-18T13:07:01;25.70;38.90
80250;DHT22;69561;37.974;23.708;2023-05-18T13:09:27;25.80;38.90
80250;DHT22;69561;37.974;23.708;2023-05-18T13:11:58;25.70;38.90
80250;DHT22;69561;37.974;23.708;2023-05-18T13:14:25;25.80;39.00
80250;DHT22;69561;37.974;23.708;2023-05-18T13:16:51;25.90;39.40
80250;DHT22;69561;37.974;23.708;2023-05-18T13:19:18;25.80;39.50
80250;DHT22;69561;37.974;23.708;2023-05-18T13:21:44;25.80;40.10
80250;DHT22;69561;37.974;23.708;2023-05-18T13:24:12;25.80;40.40
80250;DHT22;69561;37.974;23.708;2023-05-18T13:26:37;25.80;40.70
80250;DHT22;69561;37.974;23.708;2023-05-18T13:29:03;25.80;41.40
80250;DHT22;69561;37.974;23.708;2023-05-18T13:31:29;25.80;41.30
80250;DHT22;69561;37.974;23.708;2023-05-18T13:33:55;25.80;41.80
80250;DHT22;69561;37.974;23.708;2023-05-18T13:36:20;25.70;42.00
80250;DHT22;69561;37.974;23.708;2023-05-18T13:38:46;25.70;42.40
80250;DHT22;69561;37.974;23.708;2023-05-18T13:41:12;25.70;42.80
80250;DHT22;69561;37.974;23.708;2023-05-18T13:43:41;25.70;43.00
80250;DHT22;69561;37.974;23.708;2023-05-18T13:46:07;25.70;43.20
80250;DHT22;69561;37.974;23.708;2023-05-18T13:48:33;25.70;43.00
80250;DHT22;69561;37.974;23.708;2023-05-18T13:50:58;25.80;43.60
80250;DHT22;69561;37.974;23.708;2023-05-18T13:53:25;25.80;43.30
80250;DHT22;69561;37.974;23.708;2023-05-18T13:55:51;25.80;43.30
80250;DHT22;69561;37.974;23.708;2023-05-18T13:58:16;25.70;43.30
80250;DHT22;69561;37.974;23.708;2023-05-18T14:00:44;25.70;43.40
80250;DHT22;69561;37.974;23.708;2023-05-18T14:03:11;25.80;43.30
80250;DHT22;69561;37.974;23.708;2023-05-18T14:05:37;25.80;43.10
80250;DHT22;69561;37.974;23.708;2023-05-18T14:08:02;25.80;43.10
80250;DHT22;69561;37.974;23.708;2023-05-18T14:10:28;25.80;43.00
80250;DHT22;69561;37.974;23.708;2023-05-18T14:12:54;25.80;42.90
80250;DHT22;69561;37.974;23.708;2023-05-18T14:15:20;25.80;42.70
80250;DHT22;69561;37.974;23.708;2023-05-18T14:17:45;25.80;42.80
80250;DHT22;69561;37.974;23.708;2023-05-18T14:20:12;25.70;42.70
80250;DHT22;69561;37.974;23.708;2023-05-18T14:22:38;25.70;42.80
80250;DHT22;69561;37.974;23.708;2023-05-18T14:25:04;25.70;42.80
80250;DHT22;69561;37.974;23.708;2023-05-18T14:27:30;25.60;42.60
80250;DHT22;69561;37.974;23.708;2023-05-18T14:29:56;25.70;42.70
80250;DHT22;69561;37.974;23.708;2023-05-18T14:32:22;25.70;42.60
80250;DHT22;69561;37.974;23.708;2023-05-18T14:34:48;25.70;42.50
80250;DHT22;69561;37.974;23.708;2023-05-18T14:37:19;25.60;43.30
80250;DHT22;69561;37.974;23.708;2023-05-18T14:39:45;25.70;42.40
80250;DHT22;69561;37.974;23.708;2023-05-18T14:42:11;25.70;42.30
80250;DHT22;69561;37.974;23.708;2023-05-18T14:44:37;25.70;42.30
80250;DHT22;69561;37.974;23.708;2023-05-18T14:47:03;25.70;42.20
80250;DHT22;69561;37.974;23.708;2023-05-18T14:49:28;25.70;42.10
80250;DHT22;69561;37.974;23.708;2023-05-18T14:51:54;25.70;42.10
80250;DHT22;69561;37.974;23.708;2023-05-18T14:54:20;25.70;42.00
80250;DHT22;69561;37.974;23.708;2023-05-18T14:56:46;25.70;41.80
80250;DHT22;69561;37.974;23.708;2023-05-18T14:59:12;25.70;41.80
80250;DHT22;69561;37.974;23.708;2023-05-18T15:01:38;25.80;41.90
80250;DHT22;69561;37.974;23.708;2023-05-18T15:04:04;25.70;41.70
80250;DHT22;69561;37.974;23.708;2023-05-18T15:06:29;25.70;41.90
80250;DHT22;69561;37.974;23.708;2023-05-18T15:08:56;25.70;42.00
80250;DHT22;69561;37.974;23.708;2023-05-18T15:11:21;25.70;41.90
80250;DHT22;69561;37.974;23.708;2023-05-18T15:13:47;25.70;42.00
80250;DHT22;69561;37.974;23.708;2023-05-18T15:16:13;25.70;42.00
80250;DHT22;69561;37.974;23.708;2023-05-18T15:18:40;25.70;42.00
80250;DHT22;69561;37.974;23.708;2023-05-18T15:21:06;25.80;42.20
80250;DHT22;69561;37.974;23.708;2023-05-18T15:23:32;25.70;42.40
80250;DHT22;69561;37.974;23.708;2023-05-18T15:25:58;25.70;42.60
80250;DHT22;69561;37.974;23.708;2023-05-18T15:28:23;25.60;42.60
80250;DHT22;69561;37.974;23.708;2023-05-18T15:30:49;25.70;42.80
80250;DHT22;69561;37.974;23.708;2023-05-18T15:33:15;25.70;42.90
80250;DHT22;69561;37.974;23.708;2023-05-18T15:35:41;25.70;43.00
80250;DHT22;69561;37.974;23.708;2023-05-18T15:38:07;25.70;43.00
80250;DHT22;69561;37.974;23.708;2023-05-18T15:40:32;25.70;43.10
80250;DHT22;69561;37.974;23.708;2023-05-18T15:42:58;25.70;44.00